Billingsville, Indiana
Current Conditions -  °F | °C
As of 5:55 AM on Wednesday 22 Oct 2014 (Local Time) from KI67 Reporting Station
Overcast Overcast  
Wind Chill:   Ceiling: 3700
Heat Index:   Visibility: 10mi
Dew Point:   Wind: 6mph
Humidity: 76%   Direction: 360°N
Pressure: 30.24"   Gusts: NA
Location:  39.6086°N, 84.9137°W
Report Text: KI67 220955Z AUTO 36005KT 10SM SCT022 OVC037 07/03 A3024 RMK AO1
Loading
Personal Weather Stations






























Interactive Weather Map
Tropical Storm Tracking
New forecast layout! Learn more

10-Day Weather Forecast

Advertisements
Track Severe Weather on mobile